createdAt,value
2022-10-26T00:02:35.728Z,101439.03
2022-10-26T00:05:26.825Z,101433.00
2022-10-26T00:08:14.327Z,101434.69
2022-10-26T00:11:01.831Z,101433.06
2022-10-26T00:13:48.980Z,101429.31
2022-10-26T00:16:36.295Z,101431.13
2022-10-26T00:19:23.550Z,101439.47
2022-10-26T00:22:10.626Z,101445.03
2022-10-26T00:24:57.690Z,101437.34
2022-10-26T00:30:45.804Z,101443.91
2022-10-26T00:33:33.143Z,101450.91
2022-10-26T00:36:21.102Z,101450.28
2022-10-26T00:39:11.371Z,101452.53
2022-10-26T00:42:01.610Z,101448.28
2022-10-26T00:44:48.690Z,101441.44
2022-10-26T00:47:57.688Z,101445.38
2022-10-26T00:50:47.454Z,101443.72
2022-10-26T00:53:35.227Z,101447.66
2022-10-26T00:56:23.122Z,101440.31
2022-10-26T00:59:15.355Z,101441.81
2022-10-26T01:02:02.625Z,101449.47
2022-10-26T01:04:50.393Z,101448.19
2022-10-26T01:07:37.859Z,101434.13
2022-10-26T01:10:30.190Z,101437.59
2022-10-26T01:13:18.610Z,101446.44
2022-10-26T01:16:12.012Z,101440.72
2022-10-26T01:19:27.906Z,101441.84
2022-10-26T01:22:28.883Z,101439.25
2022-10-26T01:25:44.447Z,101436.13
2022-10-26T01:28:53.538Z,101438.09
2022-10-26T01:32:04.955Z,101431.41
2022-10-26T01:35:21.465Z,101428.63
2022-10-26T01:38:15.000Z,101428.28
2022-10-26T01:41:20.977Z,101430.72
2022-10-26T01:44:19.050Z,101420.28
2022-10-26T01:47:08.607Z,101433.50
2022-10-26T01:49:58.993Z,101414.25
2022-10-26T01:52:49.837Z,101432.53
2022-10-26T01:55:54.110Z,101418.16
2022-10-26T01:58:53.891Z,101411.44
2022-10-26T02:02:03.290Z,101420.13
2022-10-26T02:04:53.693Z,101418.31
2022-10-26T02:07:53.060Z,101419.47
2022-10-26T02:11:03.060Z,101411.16
2022-10-26T02:14:01.568Z,101413.59
2022-10-26T02:16:58.608Z,101409.53
2022-10-26T02:20:08.125Z,101414.06
2022-10-26T02:22:59.618Z,101404.13
2022-10-26T02:25:53.376Z,101410.47
2022-10-26T02:28:46.308Z,101402.34
2022-10-26T02:31:36.739Z,101391.38
2022-10-26T02:34:27.949Z,101396.41
2022-10-26T02:37:18.635Z,101395.28
2022-10-26T02:40:13.090Z,101391.81
2022-10-26T02:43:06.543Z,101391.81
2022-10-26T02:46:02.712Z,101391.81
2022-10-26T02:48:49.784Z,101400.13
2022-10-26T02:51:40.411Z,101395.38
2022-10-26T02:55:00.662Z,101393.59
2022-10-26T02:57:52.327Z,101389.19
2022-10-26T03:00:40.035Z,101393.28
2022-10-26T03:03:27.503Z,101381.69
2022-10-26T03:06:22.825Z,101384.78
2022-10-26T03:09:09.885Z,101383.97
2022-10-26T03:11:57.252Z,101381.06
2022-10-26T03:14:44.527Z,101390.19
2022-10-26T03:17:31.619Z,101377.31
2022-10-26T03:20:18.965Z,101373.06
2022-10-26T03:23:06.064Z,101378.13
2022-10-26T03:25:57.494Z,101369.31
2022-10-26T03:28:45.223Z,101376.50
2022-10-26T03:31:32.263Z,101379.81
2022-10-26T03:34:19.434Z,101377.84
2022-10-26T03:37:06.529Z,101386.50
2022-10-26T03:39:54.946Z,101381.28
2022-10-26T03:42:42.088Z,101373.59
2022-10-26T03:45:29.412Z,101379.16
2022-10-26T03:48:16.484Z,101376.91
2022-10-26T03:51:04.696Z,101379.22
2022-10-26T03:53:52.070Z,101382.63
2022-10-26T03:56:39.090Z,101383.44
2022-10-26T03:59:27.535Z,101377.59
2022-10-26T04:02:15.471Z,101378.56
2022-10-26T04:05:02.474Z,101359.47
2022-10-26T04:08:03.378Z,101356.38
2022-10-26T04:10:50.839Z,101366.47
2022-10-26T04:13:38.399Z,101378.09
2022-10-26T04:16:30.992Z,101380.34
2022-10-26T04:19:20.440Z,101395.03
2022-10-26T04:22:07.818Z,101390.97
2022-10-26T04:24:54.887Z,101378.72
2022-10-26T04:27:41.936Z,101386.91
2022-10-26T04:30:29.167Z,101386.22
2022-10-26T04:33:16.215Z,101388.00
2022-10-26T04:36:03.379Z,101383.78
2022-10-26T04:38:51.586Z,101379.84
2022-10-26T04:41:38.644Z,101377.72
2022-10-26T04:44:25.671Z,101384.28
2022-10-26T04:47:12.745Z,101377.41
2022-10-26T04:49:59.798Z,101367.28
2022-10-26T04:52:51.863Z,101377.25
2022-10-26T04:55:39.087Z,101380.69
2022-10-26T04:58:31.870Z,101391.63
2022-10-26T05:01:18.969Z,101392.91
2022-10-26T05:04:06.045Z,101392.59
2022-10-26T05:06:54.067Z,101385.44
2022-10-26T05:09:41.759Z,101394.25
2022-10-26T05:12:28.766Z,101384.63
2022-10-26T05:15:15.941Z,101387.06
2022-10-26T05:18:05.757Z,101387.06
2022-10-26T05:20:54.411Z,101385.25
2022-10-26T05:26:55.074Z,101379.03
2022-10-26T05:29:42.114Z,101380.03
2022-10-26T05:32:29.417Z,101382.16
2022-10-26T05:35:16.793Z,101387.72
2022-10-26T05:38:08.971Z,101394.22
2022-10-26T05:40:56.077Z,101391.63
2022-10-26T05:43:43.339Z,101401.91
2022-10-26T05:46:30.364Z,101393.91
2022-10-26T05:49:17.606Z,101402.06
2022-10-26T05:52:06.190Z,101401.09
2022-10-26T05:54:54.490Z,101414.31
2022-10-26T05:57:42.682Z,101410.72
2022-10-26T06:00:34.031Z,101416.41
2022-10-26T06:09:42.395Z,101427.66
2022-10-26T06:12:29.823Z,101430.72
2022-10-26T06:15:21.152Z,101430.72
2022-10-26T06:18:26.419Z,101439.50
2022-10-26T06:21:32.482Z,101445.50
2022-10-26T06:24:54.480Z,101441.56
2022-10-26T06:27:54.703Z,101449.88
2022-10-26T06:30:42.764Z,101457.53
2022-10-26T06:33:30.752Z,101456.50
2022-10-26T06:36:24.079Z,101463.19
2022-10-26T06:39:12.912Z,101477.03
2022-10-26T06:42:00.537Z,101478.28
2022-10-26T06:44:47.878Z,101487.38
2022-10-26T06:47:53.371Z,101495.03
2022-10-26T06:50:49.662Z,101499.25
2022-10-26T06:53:50.108Z,101499.84
2022-10-26T06:56:38.309Z,101503.25
2022-10-26T06:59:42.851Z,101505.84
2022-10-26T07:02:29.959Z,101516.78
2022-10-26T07:05:17.779Z,101527.53
2022-10-26T07:08:05.377Z,101521.56
2022-10-26T07:10:52.464Z,101534.75
2022-10-26T07:13:39.597Z,101534.47
2022-10-26T07:16:26.593Z,101540.59
2022-10-26T07:19:13.659Z,101550.63
2022-10-26T07:22:04.025Z,101559.88
2022-10-26T07:24:52.210Z,101554.19
2022-10-26T07:27:39.550Z,101564.72
2022-10-26T07:30:27.998Z,101565.22
2022-10-26T07:33:15.222Z,101572.66
2022-10-26T07:36:02.338Z,101575.84
2022-10-26T07:41:23.195Z,101595.94
2022-10-26T07:44:10.258Z,101594.34
2022-10-26T07:46:58.873Z,101609.47
2022-10-26T07:49:49.912Z,101616.25
2022-10-26T07:52:39.063Z,101613.25
2022-10-26T07:55:27.448Z,101628.13
2022-10-26T07:58:14.465Z,101620.34
2022-10-26T08:01:13.616Z,101613.47
2022-10-26T08:04:00.721Z,101628.09
2022-10-26T08:06:48.825Z,101628.41
2022-10-26T08:09:35.868Z,101629.22
2022-10-26T08:12:22.912Z,101630.34
2022-10-26T08:15:10.196Z,101636.81
2022-10-26T08:17:57.133Z,101647.13
2022-10-26T08:20:44.162Z,101643.50
2022-10-26T08:23:31.767Z,101645.69
2022-10-26T08:26:23.782Z,101646.50
2022-10-26T08:29:15.319Z,101655.69
2022-10-26T08:32:03.124Z,101655.34
2022-10-26T08:34:50.174Z,101643.53
2022-10-26T08:37:37.281Z,101651.03
2022-10-26T08:40:36.934Z,101647.13
2022-10-26T08:43:29.402Z,101647.94
2022-10-26T08:46:31.030Z,101645.97
2022-10-26T08:49:26.765Z,101642.31
2022-10-26T08:52:17.867Z,101636.56
2022-10-26T08:55:13.695Z,101647.81
2022-10-26T08:58:05.833Z,101641.19
2022-10-26T09:00:53.079Z,101640.59
2022-10-26T09:03:40.135Z,101635.50
2022-10-26T09:07:05.670Z,101624.34
2022-10-26T09:10:34.313Z,101602.25
2022-10-26T09:13:42.680Z,101586.34
2022-10-26T09:16:54.140Z,101559.19
2022-10-26T09:19:53.903Z,101542.53
2022-10-26T09:23:07.931Z,101522.88
2022-10-26T09:26:01.322Z,101498.47
2022-10-26T09:28:49.253Z,101473.66
2022-10-26T09:31:43.351Z,101461.94
2022-10-26T09:34:51.903Z,101434.75
2022-10-26T09:37:47.882Z,101407.81
2022-10-26T09:40:44.477Z,101381.13
2022-10-26T09:46:46.750Z,101332.09
2022-10-26T09:49:45.429Z,101303.25
2022-10-26T09:52:32.548Z,101292.97
2022-10-26T09:55:21.015Z,101279.47
2022-10-26T09:58:16.129Z,101266.66
2022-10-26T10:01:03.646Z,101239.28
2022-10-26T10:04:17.977Z,101226.44
2022-10-26T10:07:04.848Z,101225.25
2022-10-26T10:10:15.404Z,101212.84
2022-10-26T10:13:16.340Z,101208.47
2022-10-26T10:16:14.557Z,101198.41
2022-10-26T10:19:02.291Z,101199.22
2022-10-26T10:21:51.263Z,101204.84
2022-10-26T10:24:42.405Z,101204.47
2022-10-26T10:27:30.876Z,101214.56
2022-10-26T10:30:23.762Z,101205.72
2022-10-26T10:33:13.539Z,101205.72
2022-10-26T10:36:01.789Z,101209.28
2022-10-26T10:38:51.082Z,101205.97
2022-10-26T10:41:38.994Z,101195.06
2022-10-26T10:44:31.507Z,101185.41
2022-10-26T10:47:27.655Z,101193.78
2022-10-26T10:50:14.597Z,101198.94
2022-10-26T10:53:19.901Z,101179.69
2022-10-26T10:56:18.922Z,101175.28
2022-10-26T10:59:21.055Z,101182.50
2022-10-26T11:02:14.227Z,101195.78
2022-10-26T11:05:01.478Z,101197.66
2022-10-26T11:07:57.440Z,101199.91
2022-10-26T11:11:11.814Z,101201.81
2022-10-26T11:14:04.765Z,101228.13
2022-10-26T11:17:41.319Z,101238.28
2022-10-26T11:20:29.972Z,101247.56
2022-10-26T11:23:28.913Z,101243.09
2022-10-26T11:26:31.946Z,101254.72
2022-10-26T11:29:44.645Z,101245.03
2022-10-26T11:32:49.818Z,101264.84
2022-10-26T11:36:21.117Z,101268.50
2022-10-26T11:39:25.684Z,101272.88
2022-10-26T11:42:21.067Z,101279.59
2022-10-26T11:45:30.875Z,101310.22
2022-10-26T11:48:31.305Z,101315.06
2022-10-26T11:51:30.374Z,101333.56
2022-10-26T11:54:24.259Z,101333.59
2022-10-26T11:57:12.509Z,101336.78
2022-10-26T12:00:14.550Z,101336.00
2022-10-26T12:03:08.624Z,101327.47
2022-10-26T12:05:55.582Z,101323.75
2022-10-26T12:08:47.665Z,101326.97
2022-10-26T12:11:55.806Z,101328.88
2022-10-26T12:14:50.461Z,101313.97
2022-10-26T12:17:48.338Z,101316.28
2022-10-26T12:21:02.635Z,101305.06
2022-10-26T12:24:01.294Z,101317.50
2022-10-26T12:26:53.932Z,101334.47
2022-10-26T12:29:49.466Z,101321.94
2022-10-26T12:32:39.128Z,101341.28
2022-10-26T12:35:39.676Z,101313.91
2022-10-26T12:38:30.267Z,101316.34
2022-10-26T12:41:23.942Z,101307.41
2022-10-26T12:44:38.021Z,101310.16
2022-10-26T12:47:28.077Z,101318.63
2022-10-26T12:50:15.042Z,101320.25
2022-10-26T12:53:14.046Z,101321.00
2022-10-26T12:56:06.797Z,101311.72
2022-10-26T12:59:05.739Z,101309.59
2022-10-26T13:02:28.264Z,101307.28
2022-10-26T13:05:33.560Z,101303.66
2022-10-26T13:08:20.635Z,101317.81
2022-10-26T13:11:17.641Z,101323.00
2022-10-26T13:14:07.645Z,101325.03
2022-10-26T13:16:55.324Z,101311.28
2022-10-26T13:19:45.756Z,101311.28
2022-10-26T13:22:33.390Z,101317.75
2022-10-26T13:25:29.719Z,101312.13
2022-10-26T13:28:29.031Z,101322.63
2022-10-26T13:31:39.712Z,101320.94
2022-10-26T13:34:31.065Z,101305.63
2022-10-26T13:37:24.592Z,101307.28
2022-10-26T13:40:18.867Z,101308.84
2022-10-26T13:43:11.574Z,101318.19
2022-10-26T13:46:04.179Z,101327.09
2022-10-26T13:48:53.824Z,101325.06
2022-10-26T13:51:48.818Z,101318.72
2022-10-26T13:54:43.824Z,101330.94
2022-10-26T13:57:45.083Z,101339.47
2022-10-26T14:00:32.580Z,101348.84
2022-10-26T14:03:21.797Z,101354.56
2022-10-26T14:06:30.796Z,101354.91
2022-10-26T14:09:20.757Z,101377.16
2022-10-26T14:12:11.717Z,101375.16
2022-10-26T14:15:07.158Z,101390.50
2022-10-26T14:17:58.681Z,101390.19
2022-10-26T14:21:02.775Z,101407.19
2022-10-26T14:23:58.376Z,101401.13
2022-10-26T14:26:48.085Z,101405.56
2022-10-26T14:29:38.751Z,101404.78
2022-10-26T14:32:37.074Z,101413.28
2022-10-26T14:35:36.634Z,101414.50
2022-10-26T14:38:30.193Z,101429.06
2022-10-26T14:41:18.303Z,101432.28
2022-10-26T14:44:18.109Z,101417.78
2022-10-26T14:47:26.514Z,101410.53
2022-10-26T14:50:27.629Z,101418.59
2022-10-26T14:53:16.989Z,101417.78
2022-10-26T14:56:07.488Z,101416.94
2022-10-26T14:58:55.659Z,101421.41
2022-10-26T15:02:21.157Z,101424.22
2022-10-26T15:05:25.426Z,101436.28
2022-10-26T15:08:56.066Z,101433.84
2022-10-26T15:11:48.745Z,101426.56
2022-10-26T15:14:35.810Z,101434.19
2022-10-26T15:17:39.776Z,101438.16
2022-10-26T15:20:29.082Z,101446.56
2022-10-26T15:23:16.822Z,101439.31
2022-10-26T15:26:04.438Z,101432.81
2022-10-26T15:28:53.037Z,101437.56
2022-10-26T15:31:40.257Z,101437.53
2022-10-26T15:34:27.361Z,101433.41
2022-10-26T15:37:14.331Z,101440.16
2022-10-26T15:40:01.951Z,101436.03
2022-10-26T15:42:51.748Z,101443.66
2022-10-26T15:45:52.706Z,101447.97
2022-10-26T15:48:40.663Z,101450.22
2022-10-26T15:51:30.142Z,101448.91
2022-10-26T15:54:17.279Z,101447.19
2022-10-26T15:57:04.695Z,101467.16
2022-10-26T15:59:51.727Z,101460.66
2022-10-26T16:02:41.802Z,101458.56
2022-10-26T16:05:28.871Z,101454.78
2022-10-26T16:08:18.518Z,101469.13
2022-10-26T16:11:05.854Z,101467.78
2022-10-26T16:13:52.953Z,101462.84
2022-10-26T16:16:40.159Z,101465.47
2022-10-26T16:19:31.447Z,101475.03
2022-10-26T16:22:19.034Z,101472.56
2022-10-26T16:25:06.724Z,101471.53
2022-10-26T16:27:55.320Z,101468.25
2022-10-26T16:30:42.852Z,101483.81
2022-10-26T16:33:30.095Z,101486.22
2022-10-26T16:36:17.120Z,101490.16
2022-10-26T16:39:04.943Z,101493.13
2022-10-26T16:41:52.438Z,101493.84
2022-10-26T16:44:39.733Z,101497.13
2022-10-26T16:47:27.489Z,101498.69
2022-10-26T16:50:14.970Z,101510.25
2022-10-26T16:53:02.045Z,101524.19
2022-10-26T16:55:49.054Z,101540.56
2022-10-26T16:58:37.551Z,101532.41
2022-10-26T17:01:24.900Z,101527.06
2022-10-26T17:04:11.987Z,101528.53
2022-10-26T17:06:59.094Z,101527.56
2022-10-26T17:09:46.076Z,101543.41
2022-10-26T17:12:33.078Z,101552.88
2022-10-26T17:15:20.630Z,101545.50
2022-10-26T17:18:10.762Z,101561.75
2022-10-26T17:20:58.028Z,101562.31
2022-10-26T17:23:48.142Z,101563.34
2022-10-26T17:26:35.109Z,101568.44
2022-10-26T17:29:22.068Z,101566.28
2022-10-26T17:32:09.035Z,101581.94
2022-10-26T17:34:55.947Z,101586.22
2022-10-26T17:37:43.126Z,101587.59
2022-10-26T17:40:31.286Z,101605.06
2022-10-26T17:43:18.334Z,101608.06
2022-10-26T17:46:07.817Z,101615.66
2022-10-26T17:48:59.325Z,101622.72
2022-10-26T17:51:46.235Z,101632.94
2022-10-26T17:54:33.295Z,101650.09
2022-10-26T17:57:20.246Z,101642.00
2022-10-26T18:00:07.825Z,101647.16
2022-10-26T18:02:55.568Z,101659.81
2022-10-26T18:05:49.631Z,101670.56
2022-10-26T18:08:39.291Z,101676.75
2022-10-26T18:11:27.620Z,101689.50
2022-10-26T18:14:14.850Z,101703.78
2022-10-26T18:17:01.822Z,101702.41
2022-10-26T18:19:48.873Z,101715.88
2022-10-26T18:22:36.017Z,101718.94
2022-10-26T18:25:23.915Z,101727.25
2022-10-26T18:31:03.788Z,101743.44
2022-10-26T18:33:59.151Z,101743.06
2022-10-26T18:36:46.772Z,101752.09
2022-10-26T18:39:34.245Z,101764.06
2022-10-26T18:42:21.193Z,101769.41
2022-10-26T18:45:08.498Z,101770.22
2022-10-26T18:47:56.364Z,101787.94
2022-10-26T18:50:43.361Z,101786.03
2022-10-26T18:53:32.468Z,101794.00
2022-10-26T18:56:21.172Z,101799.59
2022-10-26T18:59:08.242Z,101814.25
2022-10-26T19:01:55.343Z,101821.84
2022-10-26T19:04:42.588Z,101825.66
2022-10-26T19:07:30.382Z,101833.72
2022-10-26T19:10:17.355Z,101837.56
2022-10-26T19:13:05.954Z,101851.50
2022-10-26T19:16:05.190Z,101852.88
2022-10-26T19:21:40.371Z,101862.53
2022-10-26T19:24:27.467Z,101868.69
2022-10-26T19:27:14.436Z,101870.72
2022-10-26T19:30:01.461Z,101883.66
2022-10-26T19:32:48.431Z,101891.03
2022-10-26T19:38:23.809Z,101903.69
2022-10-26T19:41:13.047Z,101924.44
2022-10-26T19:46:46.887Z,101932.03
2022-10-26T19:49:33.962Z,101932.94
2022-10-26T19:52:20.983Z,101931.19
2022-10-26T19:55:09.204Z,101938.38
2022-10-26T19:57:56.151Z,101926.09
2022-10-26T20:00:43.342Z,101925.94
2022-10-26T20:03:31.005Z,101931.72
2022-10-26T20:06:18.403Z,101919.53
2022-10-26T20:09:05.493Z,101912.13
2022-10-26T20:11:52.638Z,101904.34
2022-10-26T20:14:40.371Z,101905.47
2022-10-26T20:17:28.512Z,101894.88
2022-10-26T20:20:15.757Z,101897.28
2022-10-26T20:23:02.686Z,101893.53
2022-10-26T20:25:51.414Z,101892.84
2022-10-26T20:28:38.432Z,101892.59
2022-10-26T20:31:25.421Z,101891.09
2022-10-26T20:34:12.369Z,101888.81
2022-10-26T20:36:59.358Z,101887.84
2022-10-26T20:39:46.757Z,101899.09
2022-10-26T20:42:34.068Z,101896.47
2022-10-26T20:45:30.305Z,101902.47
2022-10-26T20:48:18.267Z,101902.75
2022-10-26T20:51:10.519Z,101911.97
2022-10-26T20:54:12.135Z,101912.97
2022-10-26T20:57:02.170Z,101919.75
2022-10-26T20:59:55.959Z,101922.09
2022-10-26T21:02:43.037Z,101930.81
2022-10-26T21:05:33.981Z,101939.94
2022-10-26T21:08:22.286Z,101939.25
2022-10-26T21:11:09.223Z,101942.13
2022-10-26T21:13:56.298Z,101935.91
2022-10-26T21:16:43.303Z,101939.19
2022-10-26T21:19:33.086Z,101949.75
2022-10-26T21:22:20.057Z,101939.28
2022-10-26T21:25:07.362Z,101944.69
2022-10-26T21:27:56.066Z,101950.28
2022-10-26T21:30:43.156Z,101955.63
2022-10-26T21:33:32.215Z,101960.41
2022-10-26T21:36:19.213Z,101962.25
2022-10-26T21:39:06.253Z,101970.09
2022-10-26T21:41:53.231Z,101971.44
2022-10-26T21:44:41.890Z,101976.72
2022-10-26T21:47:29.287Z,101979.09
2022-10-26T21:50:16.494Z,101987.38
2022-10-26T21:53:03.888Z,101989.13
2022-10-26T21:56:00.546Z,101991.22
2022-10-26T21:58:48.938Z,101988.94
2022-10-26T22:01:36.824Z,101994.66
2022-10-26T22:04:24.082Z,101990.59
2022-10-26T22:07:11.430Z,102000.81
2022-10-26T22:10:11.838Z,102001.53
2022-10-26T22:13:01.722Z,102007.72
2022-10-26T22:15:49.750Z,102010.75
2022-10-26T22:18:39.437Z,102019.97
2022-10-26T22:21:28.179Z,102011.34
2022-10-26T22:24:15.366Z,102029.91
2022-10-26T22:27:02.360Z,102021.84
2022-10-26T22:29:49.265Z,102034.69
2022-10-26T22:32:36.265Z,102042.38
2022-10-26T22:35:30.452Z,102041.91
2022-10-26T22:38:17.437Z,102042.50
2022-10-26T22:41:04.798Z,102052.34
2022-10-26T22:43:52.028Z,102048.59
2022-10-26T22:46:39.106Z,102046.97
2022-10-26T22:49:26.126Z,102049.53
2022-10-26T22:52:13.289Z,102050.72
2022-10-26T22:55:00.473Z,102056.88
2022-10-26T22:57:49.207Z,102053.50
2022-10-26T23:00:37.761Z,102057.47
2022-10-26T23:03:24.721Z,102054.84
2022-10-26T23:06:17.290Z,102068.97
2022-10-26T23:09:05.462Z,102063.59
2022-10-26T23:11:52.438Z,102066.84
2022-10-26T23:14:39.437Z,102083.50
2022-10-26T23:17:26.465Z,102069.88
2022-10-26T23:20:13.418Z,102083.50
2022-10-26T23:23:00.981Z,102090.06
2022-10-26T23:25:48.005Z,102085.53
2022-10-26T23:28:36.628Z,102105.00
2022-10-26T23:31:28.582Z,102110.78
2022-10-26T23:34:15.506Z,102111.75
2022-10-26T23:37:02.442Z,102119.25
2022-10-26T23:39:49.364Z,102126.84
2022-10-26T23:42:36.284Z,102135.44
2022-10-26T23:45:23.752Z,102147.38
2022-10-26T23:48:10.747Z,102135.47
2022-10-26T23:50:58.037Z,102148.31
2022-10-26T23:53:44.977Z,102149.94
2022-10-26T23:56:32.022Z,102155.06
2022-10-26T23:59:19.732Z,102154.72
